Terminal Aerodrome Forecast
Issued by NWS Melbourne, FL

Home | Current Version | Previous Version | Text Only | Print | Product List | Glossary On
Versions: 1 2 3 4 5 6 7 8 9 10 11 12 13
000
FTUS42 KMLB 200500
TAFMLB
TAF
KMLB 200528Z 2006/2106 VRB03KT P6SM FEW040 FEW250
      TEMPO 2010/2012 4SM MIFG BR FEW001
     FM201400 12008KT P6SM SCT040 SCT250
     FM210100 15003KT P6SM SCT040 BKN250=

USA.gov is the U.S. government's official web portal to all federal, state and local government web resources and services.